Time;durP1;ratioP1;P1;durP2;ratioP2;P2;SDS_P1;SDS_P2;PMS_P1;PMS_P2;Temp;Humidity;BMP_temperature;BMP_pressure;BME280_temperature;BME280_humidity;BME280_pressure;Samples;Min_cycle;Max_cycle;Signal;HPM_P1;HPM_P2
2022/01/27 00:05:38;;;;;;;32.40;17.38;;;;;;;;;;5074247;28;20434;-79
2022/01/27 00:08:14;;;;;;;30.63;16.20;;;;;;;;;;5069422;28;20437;-78
2022/01/27 00:10:49;;;;;;;30.05;17.65;;;;;;;;;;5072163;28;20494;-78
2022/01/27 00:13:17;;;;;;;31.20;17.33;;;;;;;;;;5074913;28;20419;-78
2022/01/27 00:15:45;;;;;;;32.15;17.17;;;;;;;;;;5077888;28;20431;-79
2022/01/27 00:18:18;;;;;;;32.60;16.27;;;;;;;;;;5078812;28;20971;-79
2022/01/27 00:20:48;;;;;;;31.88;18.30;;;;;;;;;;5050105;28;21548;-79
2022/01/27 00:23:14;;;;;;;31.10;17.50;;;;;;;;;;5062233;28;20449;-78
2022/01/27 00:25:40;;;;;;;33.67;17.77;;;;;;;;;;5060888;28;20490;-78
2022/01/27 00:28:06;;;;;;;36.28;17.05;;;;;;;;;;5063414;28;20412;-77
2022/01/27 00:30:36;;;;;;;30.35;16.73;;;;;;;;;;5079598;28;20427;-78
2022/01/27 00:33:07;;;;;;;35.23;17.53;;;;;;;;;;5076254;28;20439;-78
2022/01/27 00:35:33;;;;;;;31.77;17.67;;;;;;;;;;5061008;28;20522;-78
2022/01/27 00:38:00;;;;;;;34.83;17.90;;;;;;;;;;5075852;28;21551;-78
2022/01/27 00:40:26;;;;;;;32.97;17.95;;;6.80;99.90;;;;;;5045348;28;20501;-76
2022/01/27 00:42:53;;;;;;;33.47;18.52;;;;;;;;;;5077633;28;20799;-78
2022/01/27 00:45:23;;;;;;;34.25;18.67;;;;;;;;;;5062545;28;20481;-77
2022/01/27 00:47:49;;;;;;;34.77;18.17;;;;;;;;;;5076631;28;20537;-78
2022/01/27 00:50:17;;;;;;;36.33;19.20;;;;;;;;;;5078584;28;20427;-78
2022/01/27 00:52:48;;;;;;;35.13;18.63;;;;;;;;;;5074807;28;20427;-79
2022/01/27 00:55:15;;;;;;;40.15;18.90;;;;;;;;;;5076638;28;20431;-78
2022/01/27 01:00:22;;;;;;;33.35;18.95;;;;;;;;;;5078415;28;20477;-78
2022/01/27 01:03:01;;;;;;;36.92;19.92;;;;;;;;;;5058363;28;20449;-78
2022/01/27 01:16:22;;;;;;;32.60;19.58;;;;;;;;;;5077119;28;21023;-78
2022/01/27 01:19:05;;;;;;;35.03;20.27;;;;;;;;;;5036427;28;20447;-78
2022/01/27 01:29:27;;;;;;;38.80;21.07;;;;;;;;;;5070556;28;20428;-79
2022/01/27 01:34:30;;;;;;;40.35;20.90;;;;;;;;;;5082417;28;20414;-78
2022/01/27 01:37:01;;;;;;;38.08;20.40;;;;;;;;;;5075244;28;20447;-78
2022/01/27 01:39:29;;;;;;;35.45;20.58;;;;;;;;;;5076350;28;21022;-79
2022/01/27 01:41:56;;;;;;;34.23;21.03;;;;;;;;;;5053834;28;20428;-79
2022/01/27 01:44:23;;;;;;;35.23;21.63;;;;;;;;;;5073077;28;20412;-78
2022/01/27 01:46:49;;;;;;;40.13;21.60;;;;;;;;;;5075826;28;20431;-78
2022/01/27 01:49:15;;;;;;;36.92;21.75;;;;;;;;;;5077681;28;20424;-78
2022/01/27 01:51:43;;;;;;;35.47;21.25;;;;;;;;;;5076275;28;20432;-78
2022/01/27 01:54:10;;;;;;;35.67;21.98;;;;;;;;;;5076429;28;20447;-78
2022/01/27 01:56:37;;;;;;;40.67;22.90;;;;;;;;;;5077002;28;20429;-78
2022/01/27 01:59:05;;;;;;;37.75;22.33;;;;;;;;;;5076038;28;20814;-78
2022/01/27 02:01:32;;;;;;;38.50;22.50;;;;;;;;;;5058370;28;20447;-78
2022/01/27 02:04:03;;;;;;;39.88;23.10;;;;;;;;;;5076044;28;20428;-78
2022/01/27 02:06:35;;;;;;;44.17;24.77;;;;;;;;;;5082860;28;20423;-78
2022/01/27 02:19:43;;;;;;;37.33;23.60;;;;;;;;;;5076961;28;20435;-78
2022/01/27 02:22:09;;;;;;;38.80;23.70;;;;;;;;;;5059037;28;20455;-78
2022/01/27 02:24:36;;;;;;;37.95;23.30;;;;;;;;;;5075301;28;20419;-78
2022/01/27 02:27:03;;;;;;;41.78;24.13;;;;;;;;;;5058300;28;20415;-79
2022/01/27 02:29:30;;;;;;;40.50;24.77;;;5.90;99.90;;;;;;5073478;28;20448;-79
2022/01/27 02:31:57;;;;;;;39.55;25.48;;;;;;;;;;5059769;28;20510;-79
2022/01/27 02:34:23;;;;;;;38.50;23.83;;;;;;;;;;5057000;28;20427;-79
2022/01/27 02:36:50;;;;;;;43.05;24.20;;;;;;;;;;5074424;28;20545;-79
2022/01/27 02:39:16;;;;;;;41.55;23.65;;;;;;;;;;5056697;28;20523;-79
2022/01/27 02:41:45;;;;;;;42.63;24.63;;;;;;;;;;5073672;28;20504;-79
2022/01/27 02:44:40;;;;;;;41.58;24.05;;;;;;;;;;5075842;28;20433;-79
2022/01/27 02:47:06;;;;;;;39.40;24.58;;;;;;;;;;5036610;28;20432;-78
2022/01/27 02:49:32;;;;;;;41.63;23.92;;;;;;;;;;5076580;28;20450;-78
2022/01/27 02:51:58;;;;;;;41.67;24.90;;;;;;;;;;5074212;28;20486;-78
2022/01/27 02:54:24;;;;;;;42.83;24.98;;;;;;;;;;5075192;28;20415;-79
2022/01/27 02:56:50;;;;;;;40.67;25.33;;;;;;;;;;5076324;28;20890;-79
2022/01/27 02:59:17;;;;;;;41.35;24.85;;;;;;;;;;5075239;28;20419;-78
2022/01/27 03:01:48;;;;;;;41.08;24.40;;;;;;;;;;5057613;28;20433;-78
2022/01/27 03:04:14;;;;;;;41.08;25.95;;;;;;;;;;5082757;28;20510;-78
2022/01/27 03:06:40;;;;;;;38.58;24.95;;;;;;;;;;5055538;28;20511;-77
2022/01/27 03:09:06;;;;;;;38.90;24.10;;;;;;;;;;5076262;28;20488;-78
2022/01/27 03:11:38;;;;;;;39.00;23.88;;;;;;;;;;5073435;28;20419;-78
2022/01/27 03:14:04;;;;;;;42.00;24.27;;;;;;;;;;5074681;28;20481;-78
2022/01/27 03:16:31;;;;;;;37.30;23.85;;;;;;;;;;5076123;28;20427;-78
2022/01/27 03:18:57;;;;;;;38.95;23.25;;;;;;;;;;5077406;28;20455;-78
2022/01/27 03:21:23;;;;;;;41.35;24.45;;;;;;;;;;5073058;28;20416;-78
2022/01/27 03:23:49;;;;;;;38.72;22.98;;;;;;;;;;5072882;28;20442;-78
2022/01/27 03:26:15;;;;;;;41.73;23.70;;;;;;;;;;5075319;28;20459;-77
2022/01/27 03:28:41;;;;;;;40.50;25.17;;;;;;;;;;5075652;28;20521;-77
2022/01/27 03:31:07;;;;;;;41.70;24.65;;;;;;;;;;5070582;28;20420;-78
2022/01/27 03:33:33;;;;;;;38.33;23.83;;;;;;;;;;5056755;28;20431;-78
2022/01/27 03:35:59;;;;;;;44.03;24.60;;;;;;;;;;5074202;28;20427;-78
2022/01/27 03:38:25;;;;;;;39.78;23.80;;;;;;;;;;5057694;28;20451;-79
2022/01/27 03:40:51;;;;;;;39.17;23.30;;;;;;;;;;5058412;28;20476;-79
2022/01/27 03:43:17;;;;;;;39.50;23.73;;;;;;;;;;5075911;28;20439;-79
2022/01/27 03:45:43;;;;;;;39.23;22.87;;;;;;;;;;5058343;28;20412;-79
2022/01/27 03:48:10;;;;;;;40.58;23.17;;;6.40;99.90;;;;;;5075123;28;20810;-79
2022/01/27 03:50:36;;;;;;;36.95;22.85;;;;;;;;;;5055539;28;20431;-79
2022/01/27 03:53:03;;;;;;;39.50;21.73;;;;;;;;;;5075082;28;20926;-79
2022/01/27 03:55:29;;;;;;;38.72;21.45;;;;;;;;;;5058706;28;20443;-79
2022/01/27 03:57:55;;;;;;;41.37;21.87;;;;;;;;;;5056325;28;21035;-78
2022/01/27 04:00:21;;;;;;;40.53;22.67;;;;;;;;;;5074749;28;20946;-79
2022/01/27 04:03:05;;;;;;;40.05;21.55;;;;;;;;;;5041684;28;20458;-80
2022/01/27 04:05:40;;;;;;;42.38;21.67;;;;;;;;;;5068513;28;20419;-79
2022/01/27 04:08:08;;;;;;;38.58;21.80;;;;;;;;;;5057727;28;20432;-79
2022/01/27 04:10:35;;;;;;;35.00;21.02;;;;;;;;;;5075485;28;20416;-79
2022/01/27 04:13:01;;;;;;;36.78;21.40;;;;;;;;;;5074959;28;20431;-79
2022/01/27 04:15:27;;;;;;;39.38;21.45;;;;;;;;;;5075215;28;20458;-79
2022/01/27 04:17:53;;;;;;;38.10;20.92;;;;;;;;;;5057472;28;20434;-79
2022/01/27 04:20:20;;;;;;;38.25;21.45;;;;;;;;;;5073757;28;20428;-79
2022/01/27 04:22:46;;;;;;;39.08;21.38;;;;;;;;;;5057239;28;20533;-79
2022/01/27 04:25:13;;;;;;;41.53;21.60;;;;;;;;;;5073809;28;20438;-78
2022/01/27 04:27:42;;;;;;;43.55;21.13;;;;;;;;;;5075527;28;20445;-79
2022/01/27 04:30:15;;;;;;;38.28;20.45;;;;;;;;;;5073143;28;20420;-79
2022/01/27 04:32:47;;;;;;;40.85;21.13;;;;;;;;;;5075338;28;20435;-79
2022/01/27 04:35:16;;;;;;;38.17;21.23;;;;;;;;;;5072506;28;20435;-79
2022/01/27 04:37:54;;;;;;;37.92;20.70;;;;;;;;;;5073606;28;20427;-79
2022/01/27 04:40:26;;;;;;;41.42;20.33;;;;;;;;;;5055081;28;20435;-79
2022/01/27 04:45:39;;;;;;;38.42;21.00;;;;;;;;;;5075107;28;20432;-80
2022/01/27 04:48:11;;;;;;;38.40;21.17;;;;;;;;;;5074950;28;20407;-79
2022/01/27 04:50:38;;;;;;;46.50;21.50;;;;;;;;;;5051628;28;20458;-79
2022/01/27 04:53:08;;;;;;;43.50;20.90;;;;;;;;;;5058578;28;20503;-79
2022/01/27 04:55:34;;;;;;;47.03;20.30;;;;;;;;;;5074265;28;20502;-79
2022/01/27 04:58:14;;;;;;;38.67;21.65;;;;;;;;;;5058379;28;20427;-79
2022/01/27 05:00:41;;;;;;;39.67;21.27;;;;;;;;;;5075436;28;20428;-79
2022/01/27 05:03:19;;;;;;;38.17;20.90;;;;;;;;;;5061450;28;20495;-79
2022/01/27 05:05:45;;;;;;;39.67;19.35;;;;;;;;;;5077623;28;20445;-79
2022/01/27 05:08:17;;;;;;;38.03;21.02;;;;;;;;;;5076795;28;20442;-79
2022/01/27 05:10:52;;;;;;;42.35;20.23;;;;;;;;;;5077377;28;20432;-79
2022/01/27 05:13:20;;;;;;;35.50;20.27;;;;;;;;;;5080154;28;20946;-79
2022/01/27 05:15:46;;;;;;;42.58;21.67;;;;;;;;;;5076275;28;20436;-79
2022/01/27 05:18:15;;;;;;;41.08;20.92;;;;;;;;;;5076670;28;20420;-80
2022/01/27 05:20:41;;;;;;;42.33;21.03;;;;;;;;;;5073600;28;20420;-79
2022/01/27 05:23:08;;;;;;;41.47;21.13;;;;;;;;;;5077383;28;20431;-78
2022/01/27 05:25:34;;;;;;;43.35;21.23;;;;;;;;;;5075891;28;20910;-78
2022/01/27 05:28:00;;;;;;;45.70;21.90;;;;;;;;;;5076190;28;20428;-78
2022/01/27 05:30:26;;;;;;;44.80;21.63;;;;;;;;;;5076452;28;20439;-78
2022/01/27 05:32:52;;;;;;;46.35;22.58;;;;;;;;;;5059896;28;20419;-78
2022/01/27 05:35:19;;;;;;;47.97;21.63;;;;;;;;;;5071336;28;20467;-78
2022/01/27 05:37:45;;;;;;;47.95;21.88;;;;;;;;;;5072841;28;20419;-78
2022/01/27 05:40:11;;;;;;;48.75;23.05;;;;;;;;;;5077290;28;20428;-78
2022/01/27 05:42:40;;;;;;;43.20;22.02;;;;;;;;;;5061076;28;20503;-78
2022/01/27 05:45:06;;;;;;;55.80;23.43;;;;;;;;;;5061100;28;20424;-79
2022/01/27 05:47:32;;;;;;;54.60;24.05;;;;;;;;;;5076626;28;20419;-78
2022/01/27 05:49:58;;;;;;;56.53;24.70;;;;;;;;;;5076672;28;20460;-79
2022/01/27 05:52:24;;;;;;;64.03;26.10;;;;;;;;;;5078557;28;20441;-79
2022/01/27 05:54:50;;;;;;;65.57;26.90;;;;;;;;;;5059864;28;20816;-78
2022/01/27 05:57:17;;;;;;;69.03;26.98;;;5.90;99.90;;;;;;5062065;28;20427;-79
2022/01/27 05:59:43;;;;;;;63.03;26.10;;;;;;;;;;5060889;28;20438;-79
2022/01/27 06:02:09;;;;;;;66.72;26.55;;;;;;;;;;5077360;28;20638;-79
2022/01/27 06:04:36;;;;;;;71.55;27.83;;;;;;;;;;5077853;28;20423;-79
2022/01/27 06:07:02;;;;;;;64.20;27.00;;;;;;;;;;5075394;28;20494;-79
2022/01/27 06:09:28;;;;;;;67.28;28.38;;;;;;;;;;5077429;28;20493;-79
2022/01/27 06:11:54;;;;;;;63.72;25.77;;;;;;;;;;5041086;28;20433;-79
2022/01/27 06:14:20;;;;;;;82.80;27.65;;;;;;;;;;5060609;28;20424;-79
2022/01/27 06:16:46;;;;;;;80.30;28.75;;;;;;;;;;5077636;28;20424;-78
2022/01/27 06:19:13;;;;;;;82.20;27.70;;;;;;;;;;5076893;28;20487;-78
2022/01/27 06:21:40;;;;;;;58.95;25.15;;;;;;;;;;5060410;28;20438;-79
2022/01/27 06:24:07;;;;;;;62.90;25.38;;;;;;;;;;5076565;28;20461;-79
2022/01/27 06:26:33;;;;;;;72.38;25.80;;;;;;;;;;5077046;28;20430;-80
2022/01/27 06:28:59;;;;;;;60.58;25.50;;;;;;;;;;5075439;28;20835;-79
2022/01/27 06:31:25;;;;;;;61.42;24.70;;;;;;;;;;5075353;28;20481;-79
2022/01/27 06:33:54;;;;;;;59.10;23.85;;;;;;;;;;5074813;28;20428;-79
2022/01/27 06:36:21;;;;;;;65.28;25.92;;;;;;;;;;5074372;28;20492;-80
2022/01/27 06:38:48;;;;;;;63.33;24.80;;;;;;;;;;5057933;28;20592;-79
2022/01/27 06:41:14;;;;;;;51.55;23.30;;;;;;;;;;5073864;28;20436;-80
2022/01/27 06:43:40;;;;;;;59.85;23.40;;;;;;;;;;5077489;28;20495;-78
2022/01/27 06:46:06;;;;;;;69.40;23.88;;;;;;;;;;5076060;28;20532;-79
2022/01/27 06:48:32;;;;;;;47.17;21.45;;;;;;;;;;5075260;28;20419;-80
2022/01/27 06:51:00;;;;;;;43.43;20.13;;;;;;;;;;5056392;28;20465;-79
2022/01/27 06:53:26;;;;;;;47.00;21.35;;;;;;;;;;5073684;28;20426;-79
2022/01/27 06:55:54;;;;;;;43.10;19.57;;;;;;;;;;5076018;28;20446;-78
2022/01/27 06:58:20;;;;;;;46.83;21.37;;;;;;;;;;5075382;28;20487;-78
2022/01/27 07:00:47;;;;;;;40.03;20.35;;;;;;;;;;5075808;28;20950;-78
2022/01/27 07:03:13;;;;;;;48.30;21.60;;;;;;;;;;5074906;28;20451;-77
2022/01/27 07:05:40;;;;;;;41.83;19.67;;;;;;;;;;5074309;28;20423;-78
2022/01/27 07:08:06;;;;;;;41.80;19.80;;;;;;;;;;5058549;28;20423;-78
2022/01/27 07:10:32;;;;;;;42.20;20.67;;;;;;;;;;5073398;28;20523;-78
2022/01/27 07:12:58;;;;;;;42.60;20.25;;;;;;;;;;5076499;28;20427;-78
2022/01/27 07:15:25;;;;;;;38.05;19.80;;;;;;;;;;5074794;28;20419;-78
2022/01/27 07:17:51;;;;;;;40.45;19.60;;;;;;;;;;5073252;28;20428;-78
2022/01/27 07:20:17;;;;;;;37.40;18.15;;;;;;;;;;5074988;28;20436;-78
2022/01/27 07:22:43;;;;;;;39.88;19.55;;;;;;;;;;5073574;28;20954;-79
2022/01/27 07:25:10;;;;;;;39.95;18.65;;;;;;;;;;5074746;28;20420;-78
2022/01/27 07:27:37;;;;;;;34.08;18.73;;;;;;;;;;5058425;28;20431;-79
2022/01/27 07:30:03;;;;;;;41.25;18.50;;;;;;;;;;5075130;28;20428;-79
2022/01/27 07:32:29;;;;;;;39.13;18.88;;;;;;;;;;5073188;28;20419;-80
2022/01/27 07:34:55;;;;;;;43.95;19.73;;;;;;;;;;5057457;28;20825;-80
2022/01/27 07:37:21;;;;;;;41.22;20.35;;;;;;;;;;5060087;28;20507;-80
2022/01/27 07:39:47;;;;;;;41.70;19.65;;;;;;;;;;5054857;28;20423;-79
2022/01/27 07:42:13;;;;;;;42.85;20.70;;;;;;;;;;5075355;28;20426;-80
2022/01/27 07:44:39;;;;;;;47.97;20.80;;;;;;;;;;5075888;28;20506;-77
2022/01/27 07:47:06;;;;;;;43.10;20.35;;;;;;;;;;5074447;28;20446;-78
2022/01/27 07:49:33;;;;;;;44.63;20.55;;;;;;;;;;5072677;28;20532;-78
2022/01/27 07:51:59;;;;;;;51.13;20.58;;;;;;;;;;5075008;28;20433;-78
2022/01/27 07:54:25;;;;;;;47.53;20.90;;;;;;;;;;5074720;28;20507;-78
2022/01/27 07:56:51;;;;;;;48.65;20.08;;;;;;;;;;5073600;28;20483;-79
2022/01/27 07:59:17;;;;;;;52.10;21.05;;;;;;;;;;5042912;28;20442;-79
2022/01/27 08:01:43;;;;;;;42.10;18.80;;;;;;;;;;5075252;28;20518;-79
2022/01/27 08:04:11;;;;;;;42.92;19.05;;;;;;;;;;5054100;28;20412;-80
2022/01/27 08:06:37;;;;;;;43.30;18.00;;;;;;;;;;5073993;28;20915;-79
2022/01/27 08:09:03;;;;;;;46.47;19.20;;;;;;;;;;5072577;28;20416;-79
2022/01/27 08:11:30;;;;;;;42.35;17.60;;;;;;;;;;5056976;28;20423;-80
2022/01/27 08:13:56;;;;;;;44.70;16.92;;;;;;;;;;5062440;28;20868;-80
2022/01/27 08:16:22;;;;;;;43.95;17.10;;;;;;;;;;5038646;28;20452;-79
2022/01/27 08:18:48;;;;;;;43.58;15.95;;;;;;;;;;5051673;28;20907;-79
2022/01/27 08:21:14;;;;;;;41.10;15.95;;;;;;;;;;5057316;28;20442;-79
2022/01/27 08:23:43;;;;;;;48.63;16.27;;;;;;;;;;5074405;28;20561;-79
2022/01/27 08:26:12;;;;;;;36.13;14.48;;;;;;;;;;5075049;28;20459;-79
2022/01/27 08:28:57;;;;;;;35.37;13.83;;;;;;;;;;5073870;28;20907;-79
2022/01/27 08:31:32;;;;;;;33.45;13.60;;;;;;;;;;5074930;28;20423;-79
2022/01/27 08:34:03;;;;;;;33.20;13.48;;;;;;;;;;5071088;28;20430;-80
2022/01/27 08:36:28;;;;;;;34.63;13.13;;;6.90;99.90;;;;;;5062646;28;20481;-78
2022/01/27 08:38:55;;;;;;;37.80;14.03;;;;;;;;;;5080203;28;21026;-76
2022/01/27 08:41:21;;;;;;;34.60;13.20;;;;;;;;;;5079520;28;20449;-76
2022/01/27 08:43:47;;;;;;;31.63;12.43;;;;;;;;;;5080483;28;20791;-77
2022/01/27 08:46:14;;;;;;;33.42;12.23;;;;;;;;;;5060647;28;20526;-77
2022/01/27 08:48:42;;;;;;;30.73;12.77;;;;;;;;;;5075428;28;20449;-77
2022/01/27 08:51:11;;;;;;;27.17;11.68;;;;;;;;;;5080202;28;20427;-77
2022/01/27 08:53:37;;;;;;;34.72;11.95;;;;;;;;;;5078975;28;20428;-77
2022/01/27 08:56:04;;;;;;;32.20;11.88;;;;;;;;;;5060744;28;20574;-77
2022/01/27 08:58:31;;;;;;;29.08;11.07;;;7.50;99.90;;;;;;5079043;28;21409;-77
2022/01/27 09:00:58;;;;;;;28.75;10.95;;;;;;;;;;5076780;28;20765;-76
2022/01/27 09:03:24;;;;;;;32.20;11.68;;;;;;;;;;5076474;28;20483;-77
2022/01/27 09:05:50;;;;;;;32.58;11.00;;;;;;;;;;5060993;28;20428;-77
2022/01/27 09:08:16;;;;;;;30.92;11.80;;;;;;;;;;5060113;28;20506;-76
2022/01/27 09:10:42;;;;;;;29.27;10.33;;;;;;;;;;5081011;28;20981;-76
2022/01/27 09:13:08;;;;;;;30.55;10.95;;;;;;;;;;5078574;28;20423;-76
2022/01/27 09:15:34;;;;;;;27.65;9.93;;;;;;;;;;5059889;28;20425;-76
2022/01/27 09:18:00;;;;;;;30.83;10.38;;;7.70;99.90;;;;;;5060314;28;20430;-77
2022/01/27 09:20:27;;;;;;;34.30;11.38;;;;;;;;;;5078029;28;20470;-76
2022/01/27 09:22:56;;;;;;;30.83;10.25;;;;;;;;;;5062034;28;20420;-77
2022/01/27 09:25:29;;;;;;;27.73;9.43;;;;;;;;;;5075234;28;20521;-77
2022/01/27 09:27:56;;;;;;;25.80;9.25;;;;;;;;;;5074584;28;20461;-76
2022/01/27 09:30:24;;;;;;;28.50;9.05;;;;;;;;;;5073073;28;20431;-76
2022/01/27 09:32:50;;;;;;;27.35;9.05;;;7.90;99.90;;;;;;5073389;28;20423;-76
2022/01/27 09:35:16;;;;;;;26.15;8.48;;;8.00;99.90;;;;;;5072126;28;20423;-75
2022/01/27 09:37:42;;;;;;;30.42;8.63;;;;;;;;;;5059642;28;20434;-77
2022/01/27 09:40:11;;;;;;;25.45;8.23;;;;;;;;;;5078683;28;20469;-76
2022/01/27 09:42:38;;;;;;;26.80;8.00;;;;;;;;;;5076766;28;20432;-76
2022/01/27 09:45:05;;;;;;;24.15;7.95;;;8.20;99.90;;;;;;5076265;28;20424;-76
2022/01/27 09:47:35;;;;;;;26.70;8.13;;;;;;;;;;5073744;28;20432;-75
2022/01/27 09:50:09;;;;;;;26.40;8.73;;;;;;;;;;5071475;28;20545;-75
2022/01/27 09:52:35;;;;;;;26.02;8.13;;;;;;;;;;5077177;28;20919;-75
2022/01/27 09:55:02;;;;;;;28.00;7.95;;;;;;;;;;5075396;28;20427;-75
2022/01/27 09:57:28;;;;;;;25.92;8.07;;;;;;;;;;5078679;28;20420;-76
2022/01/27 09:59:54;;;;;;;25.33;8.30;;;;;;;;;;5062845;28;20427;-75
2022/01/27 10:02:21;;;;;;;26.90;8.23;;;;;;;;;;5077313;28;21053;-75
2022/01/27 10:04:47;;;;;;;26.58;7.70;;;;;;;;;;5076266;28;20419;-75
2022/01/27 10:07:15;;;;;;;25.63;8.57;;;;;;;;;;5075405;28;20435;-76
2022/01/27 10:10:00;;;;;;;28.40;8.55;;;;;;;;;;5081859;28;20854;-76
2022/01/27 10:12:41;;;;;;;31.17;8.07;;;;;;;;;;5076694;28;20651;-76
2022/01/27 10:15:12;;;;;;;27.08;8.07;;;;;;;;;;5057979;28;20466;-76
2022/01/27 10:17:40;;;;;;;28.17;7.72;;;;;;;;;;5073046;28;20486;-75
2022/01/27 10:20:26;;;;;;;28.85;7.55;;;;;;;;;;5058058;28;20440;-76
2022/01/27 10:23:15;;;;;;;23.98;7.40;;;8.40;99.90;;;;;;5072963;28;20455;-76
2022/01/27 10:26:08;;;;;;;25.42;8.05;;;;;;;;;;5073213;28;20439;-75
2022/01/27 10:28:57;;;;;;;23.50;7.68;;;;;;;;;;5076142;28;20432;-73
2022/01/27 10:31:24;;;;;;;30.55;7.72;;;;;;;;;;5061819;28;20433;-75
2022/01/27 10:34:04;;;;;;;24.80;7.60;;;;;;;;;;5076014;28;20495;-75
2022/01/27 10:36:31;;;;;;;28.73;7.77;;;;;;;;;;5075549;28;20432;-76
2022/01/27 10:38:58;;;;;;;21.95;6.95;;;;;;;;;;5076416;28;20469;-76
2022/01/27 10:41:25;;;;;;;22.65;7.45;;;;;;;;;;5077353;28;20448;-74
2022/01/27 10:44:04;;;;;;;26.50;7.05;;;;;;;;;;5075787;28;20958;-76
2022/01/27 10:46:31;;;;;;;25.90;7.18;;;;;;;;;;5076798;28;20429;-76
2022/01/27 10:49:09;;;;;;;23.90;6.90;;;;;;;;;;5079565;28;20423;-76
2022/01/27 10:51:44;;;;;;;22.98;6.70;;;;;;;;;;5068830;28;20417;-77
2022/01/27 10:54:22;;;;;;;22.33;6.40;;;;;;;;;;5087215;28;20429;-77
2022/01/27 10:56:49;;;;;;;23.73;6.82;;;;;;;;;;5058267;28;20424;-77
2022/01/27 10:59:20;;;;;;;19.85;6.82;;;;;;;;;;5074699;28;20419;-76
2022/01/27 11:01:47;;;;;;;21.00;6.47;;;;;;;;;;5059718;28;20484;-76
2022/01/27 11:04:14;;;;;;;21.47;6.50;;;;;;;;;;5076362;28;20526;-76
2022/01/27 11:06:54;;;;;;;21.30;5.88;;;;;;;;;;5060362;28;20469;-77
2022/01/27 11:09:20;;;;;;;24.58;6.78;;;;;;;;;;5075813;28;20459;-77
2022/01/27 11:11:49;;;;;;;20.55;5.53;;;;;;;;;;5078524;28;20447;-78
2022/01/27 11:14:15;;;;;;;24.67;5.68;;;;;;;;;;5058651;28;20475;-77
2022/01/27 11:16:44;;;;;;;22.13;6.75;;;;;;;;;;5060051;28;20816;-76
2022/01/27 11:21:46;;;;;;;20.88;5.55;;;;;;;;;;5072798;28;20424;-76
2022/01/27 11:24:17;;;;;;;20.38;5.45;;;;;;;;;;5049073;28;20450;-77
2022/01/27 11:26:44;;;;;;;22.52;5.65;;;;;;;;;;5070426;28;20426;-77
2022/01/27 11:29:11;;;;;;;20.85;5.70;;;;;;;;;;5066912;28;20502;-76
2022/01/27 11:31:58;;;;;;;18.85;5.25;;;;;;;;;;5051526;28;20434;-77
2022/01/27 11:34:43;;;;;;;23.27;5.60;;;;;;;;;;5067093;28;20445;-78
2022/01/27 11:37:09;;;;;;;19.58;5.18;;;;;;;;;;5054579;28;20504;-75
2022/01/27 11:39:55;;;;;;;22.40;5.72;;;;;;;;;;5065407;28;20943;-77
2022/01/27 11:42:22;;;;;;;20.60;5.25;;;;;;;;;;5070220;28;20802;-77
2022/01/27 11:44:48;;;;;;;24.58;5.38;;;;;;;;;;5053567;28;20416;-77
2022/01/27 11:47:18;;;;;;;20.58;5.03;;;;;;;;;;5057054;28;20445;-75
2022/01/27 11:52:27;;;;;;;27.10;5.50;;;9.40;99.90;;;;;;5072124;28;20432;-77
2022/01/27 11:54:53;;;;;;;20.00;4.70;;;;;;;;;;5064131;28;20458;-76
2022/01/27 11:57:39;;;;;;;25.00;6.10;;;;;;;;;;5064417;28;20431;-77
2022/01/27 12:00:10;;;;;;;23.60;5.28;;;;;;;;;;5064958;28;20438;-77
2022/01/27 12:02:55;;;;;;;23.58;5.68;;;;;;;;;;5059954;28;20432;-77
2022/01/27 12:05:21;;;;;;;22.08;5.32;;;;;;;;;;5067054;28;20435;-77
2022/01/27 12:08:06;;;;;;;23.88;5.50;;;;;;;;;;5065125;28;20429;-76
2022/01/27 12:10:58;;;;;;;17.88;5.20;;;;;;;;;;5073964;28;20529;-75
2022/01/27 12:13:29;;;;;;;24.50;5.50;;;;;;;;;;5073076;28;20822;-76
2022/01/27 12:19:06;;;;;;;24.80;5.82;;;;;;;;;;5066533;28;20439;-76
2022/01/27 12:21:41;;;;;;;22.38;5.13;;;;;;;;;;5070731;28;20463;-76
2022/01/27 12:24:23;;;;;;;21.63;4.97;;;;;;;;;;5070556;28;20506;-77
2022/01/27 12:26:52;;;;;;;23.08;5.50;;;;;;;;;;5075262;28;20492;-76
2022/01/27 12:29:29;;;;;;;25.52;5.25;;;;;;;;;;5072965;28;20443;-76
2022/01/27 12:31:57;;;;;;;24.83;5.75;;;;;;;;;;5078465;28;20424;-76
2022/01/27 12:34:23;;;;;;;24.15;5.57;;;;;;;;;;5077966;28;20505;-77
2022/01/27 12:36:54;;;;;;;22.40;5.83;;;;;;;;;;5076292;28;20572;-77
2022/01/27 12:39:21;;;;;;;24.45;5.22;;;;;;;;;;5075042;28;20519;-76
2022/01/27 12:41:48;;;;;;;20.25;5.68;;;;;;;;;;5074919;28;20461;-76
2022/01/27 12:44:14;;;;;;;17.98;4.65;;;9.50;99.90;;;;;;5072191;28;20486;-76
2022/01/27 12:47:00;;;;;;;23.42;4.68;;;;;;;;;;5058823;28;20443;-76
2022/01/27 12:49:42;;;;;;;18.95;4.80;;;9.20;99.90;;;;;;5078660;28;20451;-77
2022/01/27 12:52:10;;;;;;;19.83;5.00;;;;;;;;;;5065570;28;20517;-76
2022/01/27 12:54:37;;;;;;;23.85;4.88;;;;;;;;;;5081302;28;20415;-77
2022/01/27 12:57:04;;;;;;;25.05;5.05;;;;;;;;;;5082071;28;20427;-76
2022/01/27 12:59:31;;;;;;;19.27;4.90;;;;;;;;;;5070467;28;20417;-76
2022/01/27 13:02:01;;;;;;;21.90;5.07;;;;;;;;;;5075525;28;20429;-77
2022/01/27 13:04:28;;;;;;;20.25;4.32;;;;;;;;;;5073115;28;20431;-76
2022/01/27 13:06:58;;;;;;;17.83;4.47;;;;;;;;;;5057721;28;21320;-77
2022/01/27 13:09:26;;;;;;;20.70;4.75;;;;;;;;;;5067221;28;20938;-77
2022/01/27 13:11:54;;;;;;;23.57;5.37;;;;;;;;;;5075129;28;20428;-76
2022/01/27 13:14:20;;;;;;;23.90;5.40;;;;;;;;;;5076181;28;20466;-77
2022/01/27 13:17:10;;;;;;;22.80;4.77;;;;;;;;;;5079612;28;20463;-77
2022/01/27 13:19:44;;;;;;;21.15;4.68;;;;;;;;;;5083233;28;20923;-76
2022/01/27 13:22:16;;;;;;;26.95;5.35;;;;;;;;;;5083800;28;20450;-76
2022/01/27 13:24:46;;;;;;;21.85;5.38;;;;;;;;;;5059087;28;20477;-76
2022/01/27 13:27:13;;;;;;;23.85;4.78;;;;;;;;;;5068481;28;20432;-75
2022/01/27 13:29:40;;;;;;;21.98;4.60;;;;;;;;;;5062498;28;20424;-75
2022/01/27 13:32:07;;;;;;;19.73;4.80;;;;;;;;;;5077129;28;20434;-76
2022/01/27 13:34:33;;;;;;;22.38;5.07;;;;;;;;;;5071965;28;20425;-75
2022/01/27 13:37:01;;;;;;;21.42;4.65;;;;;;;;;;5053238;28;20499;-76
2022/01/27 13:41:53;;;;;;;21.33;5.60;;;9.50;99.90;;;;;;5052334;28;20430;-76
2022/01/27 13:44:20;;;;;;;22.60;4.75;;;;;;;;;;5075491;28;20491;-76
2022/01/27 13:46:48;;;;;;;19.15;4.22;;;;;;;;;;5077804;28;20425;-76
2022/01/27 13:49:19;;;;;;;23.63;4.82;;;;;;;;;;5079319;28;22251;-75
2022/01/27 13:51:46;;;;;;;19.15;4.43;;;;;;;;;;5075425;28;20547;-76
2022/01/27 13:54:12;;;;;;;18.63;4.07;;;;;;;;;;5078135;28;20447;-75
2022/01/27 13:56:43;;;;;;;22.07;4.40;;;;;;;;;;5060780;28;20416;-75
2022/01/27 13:59:16;;;;;;;23.38;4.35;;;9.50;99.90;;;;;;5076882;28;20484;-76
2022/01/27 14:01:42;;;;;;;18.73;4.10;;;;;;;;;;5073993;28;20427;-75
2022/01/27 14:04:11;;;;;;;20.23;3.95;;;;;;;;;;5079190;28;20431;-75
2022/01/27 14:06:56;;;;;;;20.42;3.72;;;;;;;;;;5066048;28;20481;-76
2022/01/27 14:09:25;;;;;;;23.02;4.50;;;;;;;;;;5081990;28;20433;-76
2022/01/27 14:12:02;;;;;;;18.15;4.00;;;;;;;;;;5076014;28;20435;-76
2022/01/27 14:14:49;;;;;;;21.13;4.10;;;;;;;;;;5075889;28;20419;-76
2022/01/27 14:17:28;;;;;;;25.55;4.30;;;;;;;;;;5075434;28;20533;-75
2022/01/27 14:19:55;;;;;;;17.00;3.60;;;;;;;;;;5046426;28;20429;-77
2022/01/27 14:22:24;;;;;;;22.15;4.40;;;;;;;;;;5076141;28;20423;-77
2022/01/27 14:25:06;;;;;;;20.48;4.40;;;;;;;;;;5075162;28;20435;-77
2022/01/27 14:27:40;;;;;;;19.30;3.97;;;;;;;;;;5073173;28;20433;-77
2022/01/27 14:30:11;;;;;;;21.05;4.15;;;9.20;99.90;;;;;;5074738;28;20434;-77
2022/01/27 14:32:38;;;;;;;25.50;4.55;;;;;;;;;;5074911;28;20454;-77
2022/01/27 14:35:07;;;;;;;25.00;4.65;;;;;;;;;;5058484;28;20419;-77
2022/01/27 14:37:34;;;;;;;25.30;4.82;;;;;;;;;;5057627;28;20420;-77
2022/01/27 14:40:01;;;;;;;18.95;4.57;;;;;;;;;;5043073;28;20442;-75
2022/01/27 14:42:27;;;;;;;22.65;4.53;;;;;;;;;;5058833;28;20434;-77
2022/01/27 14:44:54;;;;;;;22.33;4.57;;;;;;;;;;5060593;28;20431;-76
2022/01/27 14:47:20;;;;;;;22.33;4.40;;;;;;;;;;5041933;28;20427;-76
2022/01/27 14:49:51;;;;;;;21.20;4.45;;;;;;;;;;5069812;28;20416;-76
2022/01/27 14:52:20;;;;;;;23.90;5.13;;;;;;;;;;5054377;28;20423;-77
2022/01/27 14:54:46;;;;;;;19.08;4.40;;;;;;;;;;5074874;28;20416;-77
2022/01/27 14:57:13;;;;;;;24.00;5.32;;;;;;;;;;5059238;28;21120;-77
2022/01/27 14:59:40;;;;;;;19.00;4.78;;;;;;;;;;5071976;28;20526;-76
2022/01/27 15:02:06;;;;;;;23.88;4.43;;;;;;;;;;5057657;28;20843;-76
2022/01/27 15:04:34;;;;;;;18.92;4.30;;;;;;;;;;5059381;28;20491;-76
2022/01/27 15:07:01;;;;;;;19.73;4.55;;;;;;;;;;5076271;28;20435;-76
2022/01/27 15:09:27;;;;;;;21.10;4.65;;;;;;;;;;5058289;28;20423;-76
2022/01/27 15:11:54;;;;;;;19.35;4.40;;;;;;;;;;5073071;28;20554;-75
2022/01/27 15:20:00;;;;;;;21.95;4.60;;;;;;;;;;5030760;28;20435;-76
2022/01/27 15:22:28;;;;;;;22.13;4.13;;;;;;;;;;5072206;28;20424;-75
2022/01/27 15:24:54;;;;;;;23.05;4.47;;;;;;;;;;5073945;28;20458;-75